sensor_id;sensor_type;location;lat;lon;timestamp;P1;durP1;ratioP1;P2;durP2;ratioP2
30173;SDS011;16985;50.814;8.530;2022-12-08T00:01:25;22.30;;;13.32;;
30173;SDS011;16985;50.814;8.530;2022-12-08T00:03:53;22.90;;;13.73;;
30173;SDS011;16985;50.814;8.530;2022-12-08T00:09:20;21.42;;;12.95;;
30173;SDS011;16985;50.814;8.530;2022-12-08T00:11:50;20.70;;;13.35;;
30173;SDS011;16985;50.814;8.530;2022-12-08T00:14:34;16.92;;;11.90;;
30173;SDS011;16985;50.814;8.530;2022-12-08T00:17:14;17.23;;;11.35;;
30173;SDS011;16985;50.814;8.530;2022-12-08T00:19:41;21.65;;;11.32;;
30173;SDS011;16985;50.814;8.530;2022-12-08T00:22:08;21.35;;;12.52;;
30173;SDS011;16985;50.814;8.530;2022-12-08T00:24:36;18.38;;;11.35;;
30173;SDS011;16985;50.814;8.530;2022-12-08T00:27:03;19.65;;;13.57;;
30173;SDS011;16985;50.814;8.530;2022-12-08T00:29:30;24.33;;;12.15;;
30173;SDS011;16985;50.814;8.530;2022-12-08T00:31:56;17.45;;;12.07;;
30173;SDS011;16985;50.814;8.530;2022-12-08T00:34:22;20.52;;;11.85;;
30173;SDS011;16985;50.814;8.530;2022-12-08T00:36:48;20.67;;;13.10;;
30173;SDS011;16985;50.814;8.530;2022-12-08T00:39:14;19.05;;;13.30;;
30173;SDS011;16985;50.814;8.530;2022-12-08T00:41:41;19.55;;;12.77;;
30173;SDS011;16985;50.814;8.530;2022-12-08T00:44:25;24.73;;;12.73;;
30173;SDS011;16985;50.814;8.530;2022-12-08T00:46:51;20.60;;;12.57;;
30173;SDS011;16985;50.814;8.530;2022-12-08T00:49:17;21.48;;;12.82;;
30173;SDS011;16985;50.814;8.530;2022-12-08T00:51:43;18.83;;;12.65;;
30173;SDS011;16985;50.814;8.530;2022-12-08T00:54:09;22.65;;;12.85;;
30173;SDS011;16985;50.814;8.530;2022-12-08T00:56:35;22.45;;;12.93;;
30173;SDS011;16985;50.814;8.530;2022-12-08T00:59:02;25.77;;;12.82;;
30173;SDS011;16985;50.814;8.530;2022-12-08T01:01:29;23.05;;;13.05;;
30173;SDS011;16985;50.814;8.530;2022-12-08T01:03:55;25.08;;;13.70;;
30173;SDS011;16985;50.814;8.530;2022-12-08T01:06:21;22.95;;;13.68;;
30173;SDS011;16985;50.814;8.530;2022-12-08T01:08:47;23.02;;;13.02;;
30173;SDS011;16985;50.814;8.530;2022-12-08T01:11:14;26.33;;;13.95;;
30173;SDS011;16985;50.814;8.530;2022-12-08T01:13:42;27.45;;;14.75;;
30173;SDS011;16985;50.814;8.530;2022-12-08T01:16:09;20.80;;;13.20;;
30173;SDS011;16985;50.814;8.530;2022-12-08T01:18:43;23.23;;;13.20;;
30173;SDS011;16985;50.814;8.530;2022-12-08T01:21:09;21.70;;;12.75;;
30173;SDS011;16985;50.814;8.530;2022-12-08T01:23:35;23.13;;;13.48;;
30173;SDS011;16985;50.814;8.530;2022-12-08T01:26:04;18.40;;;12.00;;
30173;SDS011;16985;50.814;8.530;2022-12-08T01:28:32;20.58;;;12.48;;
30173;SDS011;16985;50.814;8.530;2022-12-08T01:30:59;21.00;;;13.40;;
30173;SDS011;16985;50.814;8.530;2022-12-08T01:33:25;19.27;;;12.40;;
30173;SDS011;16985;50.814;8.530;2022-12-08T01:35:52;19.98;;;13.52;;
30173;SDS011;16985;50.814;8.530;2022-12-08T01:38:19;23.98;;;13.18;;
30173;SDS011;16985;50.814;8.530;2022-12-08T01:40:46;17.98;;;12.23;;
30173;SDS011;16985;50.814;8.530;2022-12-08T01:43:16;24.73;;;13.38;;
30173;SDS011;16985;50.814;8.530;2022-12-08T01:45:44;24.33;;;13.43;;
30173;SDS011;16985;50.814;8.530;2022-12-08T01:48:21;23.42;;;14.77;;
30173;SDS011;16985;50.814;8.530;2022-12-08T01:50:52;21.42;;;13.40;;
30173;SDS011;16985;50.814;8.530;2022-12-08T01:55:53;21.27;;;13.50;;
30173;SDS011;16985;50.814;8.530;2022-12-08T02:00:53;23.15;;;12.88;;
30173;SDS011;16985;50.814;8.530;2022-12-08T02:03:29;23.63;;;14.55;;
30173;SDS011;16985;50.814;8.530;2022-12-08T02:06:04;21.90;;;14.57;;
30173;SDS011;16985;50.814;8.530;2022-12-08T02:08:30;22.40;;;14.00;;
30173;SDS011;16985;50.814;8.530;2022-12-08T02:10:56;23.40;;;14.15;;
30173;SDS011;16985;50.814;8.530;2022-12-08T02:13:22;22.70;;;13.38;;
30173;SDS011;16985;50.814;8.530;2022-12-08T02:15:57;20.80;;;13.40;;
30173;SDS011;16985;50.814;8.530;2022-12-08T02:18:41;23.35;;;14.00;;
30173;SDS011;16985;50.814;8.530;2022-12-08T02:21:32;23.67;;;15.15;;
30173;SDS011;16985;50.814;8.530;2022-12-08T02:24:29;21.63;;;14.30;;
30173;SDS011;16985;50.814;8.530;2022-12-08T02:27:13;23.10;;;13.85;;
30173;SDS011;16985;50.814;8.530;2022-12-08T02:36:05;20.73;;;12.50;;
30173;SDS011;16985;50.814;8.530;2022-12-08T02:39:09;22.30;;;13.17;;
30173;SDS011;16985;50.814;8.530;2022-12-08T02:41:55;20.73;;;12.02;;
30173;SDS011;16985;50.814;8.530;2022-12-08T02:44:43;20.40;;;12.40;;
30173;SDS011;16985;50.814;8.530;2022-12-08T02:47:22;18.65;;;11.77;;
30173;SDS011;16985;50.814;8.530;2022-12-08T02:49:50;22.33;;;12.38;;
30173;SDS011;16985;50.814;8.530;2022-12-08T02:54:48;23.98;;;12.27;;
30173;SDS011;16985;50.814;8.530;2022-12-08T02:57:42;21.65;;;12.45;;
30173;SDS011;16985;50.814;8.530;2022-12-08T03:03:34;20.95;;;11.90;;
30173;SDS011;16985;50.814;8.530;2022-12-08T03:09:38;21.02;;;10.73;;
30173;SDS011;16985;50.814;8.530;2022-12-08T03:12:19;19.63;;;12.50;;
30173;SDS011;16985;50.814;8.530;2022-12-08T03:15:13;19.27;;;10.88;;
30173;SDS011;16985;50.814;8.530;2022-12-08T03:17:48;17.48;;;10.98;;
30173;SDS011;16985;50.814;8.530;2022-12-08T03:20:22;19.23;;;12.27;;
30173;SDS011;16985;50.814;8.530;2022-12-08T03:22:51;14.90;;;10.75;;
30173;SDS011;16985;50.814;8.530;2022-12-08T03:25:22;18.77;;;10.70;;
30173;SDS011;16985;50.814;8.530;2022-12-08T03:27:55;15.38;;;9.88;;
30173;SDS011;16985;50.814;8.530;2022-12-08T03:30:21;24.63;;;10.77;;
30173;SDS011;16985;50.814;8.530;2022-12-08T03:32:51;17.38;;;10.55;;
30173;SDS011;16985;50.814;8.530;2022-12-08T03:35:32;18.60;;;10.13;;
30173;SDS011;16985;50.814;8.530;2022-12-08T03:38:04;15.23;;;10.60;;
30173;SDS011;16985;50.814;8.530;2022-12-08T03:40:37;16.65;;;10.32;;
30173;SDS011;16985;50.814;8.530;2022-12-08T03:43:03;14.85;;;10.70;;
30173;SDS011;16985;50.814;8.530;2022-12-08T03:45:29;16.00;;;10.02;;
30173;SDS011;16985;50.814;8.530;2022-12-08T03:47:55;19.02;;;10.52;;
30173;SDS011;16985;50.814;8.530;2022-12-08T03:50:22;16.20;;;10.07;;
30173;SDS011;16985;50.814;8.530;2022-12-08T03:52:48;18.10;;;11.23;;
30173;SDS011;16985;50.814;8.530;2022-12-08T03:55:14;15.90;;;9.95;;
30173;SDS011;16985;50.814;8.530;2022-12-08T03:57:40;13.18;;;9.27;;
30173;SDS011;16985;50.814;8.530;2022-12-08T04:00:07;17.23;;;10.77;;
30173;SDS011;16985;50.814;8.530;2022-12-08T04:02:38;16.65;;;9.48;;
30173;SDS011;16985;50.814;8.530;2022-12-08T04:05:04;14.75;;;10.70;;
30173;SDS011;16985;50.814;8.530;2022-12-08T04:07:31;19.60;;;10.40;;
30173;SDS011;16985;50.814;8.530;2022-12-08T04:09:57;18.08;;;9.98;;
30173;SDS011;16985;50.814;8.530;2022-12-08T04:12:23;21.92;;;10.40;;
30173;SDS011;16985;50.814;8.530;2022-12-08T04:14:48;13.23;;;8.98;;
30173;SDS011;16985;50.814;8.530;2022-12-08T04:17:14;21.05;;;10.02;;
30173;SDS011;16985;50.814;8.530;2022-12-08T04:19:40;13.52;;;9.27;;
30173;SDS011;16985;50.814;8.530;2022-12-08T04:22:06;11.60;;;8.23;;
30173;SDS011;16985;50.814;8.530;2022-12-08T04:24:32;13.32;;;9.48;;
30173;SDS011;16985;50.814;8.530;2022-12-08T04:26:58;13.57;;;8.38;;
30173;SDS011;16985;50.814;8.530;2022-12-08T04:29:24;14.68;;;8.60;;
30173;SDS011;16985;50.814;8.530;2022-12-08T04:31:50;11.82;;;8.52;;
30173;SDS011;16985;50.814;8.530;2022-12-08T04:34:15;11.13;;;8.00;;
30173;SDS011;16985;50.814;8.530;2022-12-08T04:36:41;14.98;;;8.73;;
30173;SDS011;16985;50.814;8.530;2022-12-08T04:39:07;11.02;;;7.57;;
30173;SDS011;16985;50.814;8.530;2022-12-08T04:41:33;16.67;;;8.32;;
30173;SDS011;16985;50.814;8.530;2022-12-08T04:43:59;15.40;;;8.10;;
30173;SDS011;16985;50.814;8.530;2022-12-08T04:46:25;14.82;;;8.23;;
30173;SDS011;16985;50.814;8.530;2022-12-08T04:48:50;11.63;;;8.02;;
30173;SDS011;16985;50.814;8.530;2022-12-08T04:51:17;13.68;;;8.25;;
30173;SDS011;16985;50.814;8.530;2022-12-08T04:53:45;10.40;;;8.07;;
30173;SDS011;16985;50.814;8.530;2022-12-08T04:56:12;13.75;;;7.68;;
30173;SDS011;16985;50.814;8.530;2022-12-08T04:58:43;11.15;;;8.18;;
30173;SDS011;16985;50.814;8.530;2022-12-08T05:01:09;10.50;;;8.50;;
30173;SDS011;16985;50.814;8.530;2022-12-08T05:03:35;9.88;;;6.82;;
30173;SDS011;16985;50.814;8.530;2022-12-08T05:06:02;12.48;;;7.05;;
30173;SDS011;16985;50.814;8.530;2022-12-08T05:08:28;10.32;;;7.75;;
30173;SDS011;16985;50.814;8.530;2022-12-08T05:11:04;11.35;;;7.72;;
30173;SDS011;16985;50.814;8.530;2022-12-08T05:13:32;11.43;;;8.40;;
30173;SDS011;16985;50.814;8.530;2022-12-08T05:16:02;10.48;;;7.25;;
30173;SDS011;16985;50.814;8.530;2022-12-08T05:18:30;9.75;;;7.50;;
30173;SDS011;16985;50.814;8.530;2022-12-08T05:20:55;10.98;;;7.45;;
30173;SDS011;16985;50.814;8.530;2022-12-08T05:23:21;11.85;;;8.02;;
30173;SDS011;16985;50.814;8.530;2022-12-08T05:25:47;8.70;;;7.40;;
30173;SDS011;16985;50.814;8.530;2022-12-08T05:28:13;12.68;;;7.90;;
30173;SDS011;16985;50.814;8.530;2022-12-08T05:30:39;12.40;;;8.48;;
30173;SDS011;16985;50.814;8.530;2022-12-08T05:33:05;19.02;;;8.35;;
30173;SDS011;16985;50.814;8.530;2022-12-08T05:35:31;11.30;;;8.05;;
30173;SDS011;16985;50.814;8.530;2022-12-08T05:37:57;9.77;;;7.75;;
30173;SDS011;16985;50.814;8.530;2022-12-08T05:40:23;9.10;;;7.20;;
30173;SDS011;16985;50.814;8.530;2022-12-08T05:42:48;11.60;;;7.05;;
30173;SDS011;16985;50.814;8.530;2022-12-08T05:45:14;13.20;;;7.70;;
30173;SDS011;16985;50.814;8.530;2022-12-08T05:47:40;10.02;;;7.30;;
30173;SDS011;16985;50.814;8.530;2022-12-08T05:50:06;10.73;;;7.35;;
30173;SDS011;16985;50.814;8.530;2022-12-08T05:52:32;11.60;;;6.53;;
30173;SDS011;16985;50.814;8.530;2022-12-08T05:54:58;10.82;;;8.13;;
30173;SDS011;16985;50.814;8.530;2022-12-08T05:57:24;9.90;;;6.88;;
30173;SDS011;16985;50.814;8.530;2022-12-08T05:59:50;10.90;;;7.35;;
30173;SDS011;16985;50.814;8.530;2022-12-08T06:02:16;9.93;;;7.07;;
30173;SDS011;16985;50.814;8.530;2022-12-08T06:04:42;13.60;;;8.95;;
30173;SDS011;16985;50.814;8.530;2022-12-08T06:07:08;11.65;;;7.80;;
30173;SDS011;16985;50.814;8.530;2022-12-08T06:09:34;11.80;;;7.60;;
30173;SDS011;16985;50.814;8.530;2022-12-08T06:12:00;10.75;;;7.88;;
30173;SDS011;16985;50.814;8.530;2022-12-08T06:14:26;11.13;;;7.80;;
30173;SDS011;16985;50.814;8.530;2022-12-08T06:16:52;12.88;;;7.63;;
30173;SDS011;16985;50.814;8.530;2022-12-08T06:19:18;11.55;;;7.45;;
30173;SDS011;16985;50.814;8.530;2022-12-08T06:21:44;13.88;;;6.95;;
30173;SDS011;16985;50.814;8.530;2022-12-08T06:24:10;11.05;;;7.40;;
30173;SDS011;16985;50.814;8.530;2022-12-08T06:26:36;9.82;;;7.32;;
30173;SDS011;16985;50.814;8.530;2022-12-08T06:29:04;12.52;;;8.07;;
30173;SDS011;16985;50.814;8.530;2022-12-08T06:31:30;11.25;;;7.93;;
30173;SDS011;16985;50.814;8.530;2022-12-08T06:33:56;12.40;;;7.95;;
30173;SDS011;16985;50.814;8.530;2022-12-08T06:36:23;13.68;;;7.95;;
30173;SDS011;16985;50.814;8.530;2022-12-08T06:38:50;12.15;;;7.55;;
30173;SDS011;16985;50.814;8.530;2022-12-08T06:41:16;10.30;;;7.45;;
30173;SDS011;16985;50.814;8.530;2022-12-08T06:43:43;8.10;;;7.10;;
30173;SDS011;16985;50.814;8.530;2022-12-08T06:46:10;11.10;;;7.70;;
30173;SDS011;16985;50.814;8.530;2022-12-08T06:48:39;14.63;;;8.10;;
30173;SDS011;16985;50.814;8.530;2022-12-08T06:51:06;11.57;;;7.38;;
30173;SDS011;16985;50.814;8.530;2022-12-08T06:53:34;11.02;;;7.05;;
30173;SDS011;16985;50.814;8.530;2022-12-08T06:56:01;8.45;;;6.85;;
30173;SDS011;16985;50.814;8.530;2022-12-08T06:58:26;8.82;;;6.25;;
30173;SDS011;16985;50.814;8.530;2022-12-08T07:00:52;9.13;;;6.30;;
30173;SDS011;16985;50.814;8.530;2022-12-08T07:03:18;9.73;;;6.50;;
30173;SDS011;16985;50.814;8.530;2022-12-08T07:05:44;6.85;;;5.75;;
30173;SDS011;16985;50.814;8.530;2022-12-08T07:08:10;10.15;;;5.90;;
30173;SDS011;16985;50.814;8.530;2022-12-08T07:10:36;8.48;;;6.55;;
30173;SDS011;16985;50.814;8.530;2022-12-08T07:13:02;9.27;;;6.03;;
30173;SDS011;16985;50.814;8.530;2022-12-08T07:15:28;7.38;;;5.97;;
30173;SDS011;16985;50.814;8.530;2022-12-08T07:17:54;7.53;;;6.20;;
30173;SDS011;16985;50.814;8.530;2022-12-08T07:20:20;12.52;;;7.13;;
30173;SDS011;16985;50.814;8.530;2022-12-08T07:22:52;9.15;;;7.10;;
30173;SDS011;16985;50.814;8.530;2022-12-08T07:25:18;10.10;;;7.15;;
30173;SDS011;16985;50.814;8.530;2022-12-08T07:27:45;8.38;;;6.20;;
30173;SDS011;16985;50.814;8.530;2022-12-08T07:30:12;9.23;;;6.32;;
30173;SDS011;16985;50.814;8.530;2022-12-08T07:32:39;9.02;;;5.93;;
30173;SDS011;16985;50.814;8.530;2022-12-08T07:35:05;7.78;;;6.07;;
30173;SDS011;16985;50.814;8.530;2022-12-08T07:37:32;6.57;;;5.07;;
30173;SDS011;16985;50.814;8.530;2022-12-08T07:39:59;8.40;;;5.53;;
30173;SDS011;16985;50.814;8.530;2022-12-08T07:42:24;8.32;;;5.63;;
30173;SDS011;16985;50.814;8.530;2022-12-08T07:44:50;9.55;;;6.18;;
30173;SDS011;16985;50.814;8.530;2022-12-08T07:47:16;10.45;;;7.10;;
30173;SDS011;16985;50.814;8.530;2022-12-08T07:49:43;11.70;;;7.45;;
30173;SDS011;16985;50.814;8.530;2022-12-08T07:52:09;11.35;;;7.50;;
30173;SDS011;16985;50.814;8.530;2022-12-08T07:54:35;10.75;;;7.18;;
30173;SDS011;16985;50.814;8.530;2022-12-08T07:57:01;10.80;;;7.57;;
30173;SDS011;16985;50.814;8.530;2022-12-08T07:59:28;10.00;;;7.28;;
30173;SDS011;16985;50.814;8.530;2022-12-08T08:01:54;10.95;;;7.55;;
30173;SDS011;16985;50.814;8.530;2022-12-08T08:04:21;12.13;;;8.45;;
30173;SDS011;16985;50.814;8.530;2022-12-08T08:06:47;13.25;;;8.88;;
30173;SDS011;16985;50.814;8.530;2022-12-08T08:09:12;14.73;;;9.07;;
30173;SDS011;16985;50.814;8.530;2022-12-08T08:11:38;15.75;;;9.02;;
30173;SDS011;16985;50.814;8.530;2022-12-08T08:14:04;13.70;;;8.70;;
30173;SDS011;16985;50.814;8.530;2022-12-08T08:16:30;14.57;;;8.52;;
30173;SDS011;16985;50.814;8.530;2022-12-08T08:18:56;14.10;;;9.57;;
30173;SDS011;16985;50.814;8.530;2022-12-08T08:21:22;15.20;;;9.60;;
30173;SDS011;16985;50.814;8.530;2022-12-08T08:23:48;14.90;;;9.30;;
30173;SDS011;16985;50.814;8.530;2022-12-08T08:26:15;15.95;;;9.00;;
30173;SDS011;16985;50.814;8.530;2022-12-08T08:28:40;13.45;;;9.05;;
30173;SDS011;16985;50.814;8.530;2022-12-08T08:31:09;17.20;;;10.30;;
30173;SDS011;16985;50.814;8.530;2022-12-08T08:33:36;14.80;;;9.20;;
30173;SDS011;16985;50.814;8.530;2022-12-08T08:36:06;18.20;;;10.48;;
30173;SDS011;16985;50.814;8.530;2022-12-08T08:38:34;17.27;;;10.25;;
30173;SDS011;16985;50.814;8.530;2022-12-08T08:41:10;18.80;;;10.65;;
30173;SDS011;16985;50.814;8.530;2022-12-08T08:43:36;15.25;;;10.63;;
30173;SDS011;16985;50.814;8.530;2022-12-08T08:46:03;16.23;;;10.43;;
30173;SDS011;16985;50.814;8.530;2022-12-08T08:48:29;19.40;;;10.00;;
30173;SDS011;16985;50.814;8.530;2022-12-08T08:50:56;14.23;;;9.60;;
30173;SDS011;16985;50.814;8.530;2022-12-08T08:53:23;18.20;;;9.75;;
30173;SDS011;16985;50.814;8.530;2022-12-08T08:55:49;13.77;;;9.13;;
30173;SDS011;16985;50.814;8.530;2022-12-08T08:58:16;14.18;;;9.40;;
30173;SDS011;16985;50.814;8.530;2022-12-08T09:00:42;13.02;;;8.88;;
30173;SDS011;16985;50.814;8.530;2022-12-08T09:03:08;14.63;;;9.68;;
30173;SDS011;16985;50.814;8.530;2022-12-08T09:05:36;13.13;;;8.90;;
30173;SDS011;16985;50.814;8.530;2022-12-08T09:08:05;13.30;;;9.07;;
30173;SDS011;16985;50.814;8.530;2022-12-08T09:10:31;14.95;;;9.98;;
30173;SDS011;16985;50.814;8.530;2022-12-08T09:12:57;12.63;;;9.25;;
30173;SDS011;16985;50.814;8.530;2022-12-08T09:15:23;15.30;;;9.38;;
30173;SDS011;16985;50.814;8.530;2022-12-08T09:17:49;14.25;;;8.70;;
30173;SDS011;16985;50.814;8.530;2022-12-08T09:20:15;14.77;;;9.73;;
30173;SDS011;16985;50.814;8.530;2022-12-08T09:22:41;15.40;;;8.73;;
30173;SDS011;16985;50.814;8.530;2022-12-08T09:25:06;15.32;;;9.38;;
30173;SDS011;16985;50.814;8.530;2022-12-08T09:27:33;13.20;;;9.25;;
30173;SDS011;16985;50.814;8.530;2022-12-08T09:29:59;15.63;;;9.05;;
30173;SDS011;16985;50.814;8.530;2022-12-08T09:32:24;14.98;;;8.45;;
30173;SDS011;16985;50.814;8.530;2022-12-08T09:34:50;11.98;;;8.23;;
30173;SDS011;16985;50.814;8.530;2022-12-08T09:37:16;15.73;;;9.65;;
30173;SDS011;16985;50.814;8.530;2022-12-08T09:39:42;13.65;;;8.52;;
30173;SDS011;16985;50.814;8.530;2022-12-08T09:42:08;11.07;;;8.05;;
30173;SDS011;16985;50.814;8.530;2022-12-08T09:47:29;12.27;;;8.38;;
30173;SDS011;16985;50.814;8.530;2022-12-08T09:52:35;14.02;;;8.85;;
30173;SDS011;16985;50.814;8.530;2022-12-08T09:55:16;18.70;;;10.70;;
30173;SDS011;16985;50.814;8.530;2022-12-08T09:58:01;13.00;;;8.95;;
30173;SDS011;16985;50.814;8.530;2022-12-08T10:00:29;12.15;;;7.55;;
30173;SDS011;16985;50.814;8.530;2022-12-08T10:02:55;12.40;;;8.65;;
30173;SDS011;16985;50.814;8.530;2022-12-08T10:05:23;13.07;;;7.82;;
30173;SDS011;16985;50.814;8.530;2022-12-08T10:10:50;11.23;;;7.85;;
30173;SDS011;16985;50.814;8.530;2022-12-08T10:16:41;10.68;;;7.95;;
30173;SDS011;16985;50.814;8.530;2022-12-08T10:19:14;11.38;;;7.68;;
30173;SDS011;16985;50.814;8.530;2022-12-08T10:21:46;12.38;;;7.95;;
30173;SDS011;16985;50.814;8.530;2022-12-08T10:27:22;11.50;;;7.35;;
30173;SDS011;16985;50.814;8.530;2022-12-08T10:29:49;9.60;;;7.25;;
30173;SDS011;16985;50.814;8.530;2022-12-08T10:32:18;14.27;;;7.80;;
30173;SDS011;16985;50.814;8.530;2022-12-08T10:37:39;10.65;;;7.00;;
30173;SDS011;16985;50.814;8.530;2022-12-08T10:40:09;8.60;;;6.47;;
30173;SDS011;16985;50.814;8.530;2022-12-08T10:42:47;8.63;;;6.25;;
30173;SDS011;16985;50.814;8.530;2022-12-08T10:48:00;7.47;;;5.88;;
30173;SDS011;16985;50.814;8.530;2022-12-08T10:50:33;9.30;;;5.90;;
30173;SDS011;16985;50.814;8.530;2022-12-08T10:56:13;7.00;;;5.65;;
30173;SDS011;16985;50.814;8.530;2022-12-08T10:58:43;9.73;;;5.72;;
30173;SDS011;16985;50.814;8.530;2022-12-08T11:01:12;7.97;;;5.45;;
30173;SDS011;16985;50.814;8.530;2022-12-08T11:06:29;8.23;;;5.80;;
30173;SDS011;16985;50.814;8.530;2022-12-08T11:09:03;7.43;;;5.40;;
30173;SDS011;16985;50.814;8.530;2022-12-08T11:11:45;7.82;;;4.85;;
30173;SDS011;16985;50.814;8.530;2022-12-08T11:14:15;6.95;;;4.95;;
30173;SDS011;16985;50.814;8.530;2022-12-08T11:17:02;7.35;;;5.20;;
30173;SDS011;16985;50.814;8.530;2022-12-08T11:19:41;11.17;;;5.80;;
30173;SDS011;16985;50.814;8.530;2022-12-08T11:22:21;7.93;;;5.28;;
30173;SDS011;16985;50.814;8.530;2022-12-08T11:25:02;6.80;;;5.30;;
30173;SDS011;16985;50.814;8.530;2022-12-08T11:27:31;6.70;;;4.50;;
30173;SDS011;16985;50.814;8.530;2022-12-08T11:30:19;5.60;;;4.78;;
30173;SDS011;16985;50.814;8.530;2022-12-08T11:33:02;6.55;;;4.45;;
30173;SDS011;16985;50.814;8.530;2022-12-08T11:35:40;6.78;;;4.80;;
30173;SDS011;16985;50.814;8.530;2022-12-08T11:38:14;7.15;;;4.82;;
30173;SDS011;16985;50.814;8.530;2022-12-08T11:40:45;6.43;;;4.60;;
30173;SDS011;16985;50.814;8.530;2022-12-08T11:43:17;6.85;;;5.38;;
30173;SDS011;16985;50.814;8.530;2022-12-08T11:46:27;8.05;;;5.45;;
30173;SDS011;16985;50.814;8.530;2022-12-08T11:48:55;9.43;;;5.20;;
30173;SDS011;16985;50.814;8.530;2022-12-08T11:51:43;7.78;;;5.32;;
30173;SDS011;16985;50.814;8.530;2022-12-08T11:54:21;7.88;;;5.45;;
30173;SDS011;16985;50.814;8.530;2022-12-08T11:56:57;6.43;;;4.82;;
30173;SDS011;16985;50.814;8.530;2022-12-08T12:02:04;6.57;;;5.18;;
30173;SDS011;16985;50.814;8.530;2022-12-08T12:04:53;8.07;;;4.80;;
30173;SDS011;16985;50.814;8.530;2022-12-08T12:07:46;5.15;;;4.45;;
30173;SDS011;16985;50.814;8.530;2022-12-08T12:15:48;4.07;;;3.60;;
30173;SDS011;16985;50.814;8.530;2022-12-08T12:18:43;4.78;;;3.92;;
30173;SDS011;16985;50.814;8.530;2022-12-08T12:21:27;8.80;;;4.97;;
30173;SDS011;16985;50.814;8.530;2022-12-08T12:26:53;11.02;;;5.70;;
30173;SDS011;16985;50.814;8.530;2022-12-08T12:29:53;10.52;;;5.95;;
30173;SDS011;16985;50.814;8.530;2022-12-08T12:32:26;8.93;;;5.65;;
30173;SDS011;16985;50.814;8.530;2022-12-08T12:35:15;8.27;;;5.03;;
30173;SDS011;16985;50.814;8.530;2022-12-08T12:38:01;9.23;;;5.05;;
30173;SDS011;16985;50.814;8.530;2022-12-08T12:41:01;9.57;;;5.45;;
30173;SDS011;16985;50.814;8.530;2022-12-08T12:43:32;9.40;;;5.93;;
30173;SDS011;16985;50.814;8.530;2022-12-08T12:48:51;9.98;;;6.88;;
30173;SDS011;16985;50.814;8.530;2022-12-08T12:54:19;8.10;;;5.80;;
30173;SDS011;16985;50.814;8.530;2022-12-08T12:59:44;12.40;;;5.40;;
30173;SDS011;16985;50.814;8.530;2022-12-08T13:05:20;5.35;;;4.68;;
30173;SDS011;16985;50.814;8.530;2022-12-08T13:07:57;6.97;;;4.65;;
30173;SDS011;16985;50.814;8.530;2022-12-08T13:11:04;7.20;;;5.18;;
30173;SDS011;16985;50.814;8.530;2022-12-08T13:13:34;6.97;;;4.40;;
30173;SDS011;16985;50.814;8.530;2022-12-08T13:18:42;7.25;;;5.28;;
30173;SDS011;16985;50.814;8.530;2022-12-08T13:21:14;7.78;;;5.55;;
30173;SDS011;16985;50.814;8.530;2022-12-08T13:23:47;10.23;;;5.45;;
30173;SDS011;16985;50.814;8.530;2022-12-08T13:26:43;7.50;;;5.00;;
30173;SDS011;16985;50.814;8.530;2022-12-08T13:29:38;10.02;;;5.38;;
30173;SDS011;16985;50.814;8.530;2022-12-08T13:37:44;7.75;;;4.88;;
30173;SDS011;16985;50.814;8.530;2022-12-08T13:40:26;7.90;;;5.53;;
30173;SDS011;16985;50.814;8.530;2022-12-08T13:42:58;8.77;;;5.47;;
30173;SDS011;16985;50.814;8.530;2022-12-08T13:45:41;9.07;;;5.22;;
30173;SDS011;16985;50.814;8.530;2022-12-08T13:53:57;7.53;;;4.53;;
30173;SDS011;16985;50.814;8.530;2022-12-08T13:56:29;8.95;;;5.05;;
30173;SDS011;16985;50.814;8.530;2022-12-08T13:59:09;7.43;;;4.07;;
30173;SDS011;16985;50.814;8.530;2022-12-08T14:02:03;6.55;;;4.00;;
30173;SDS011;16985;50.814;8.530;2022-12-08T14:04:45;6.05;;;4.35;;
30173;SDS011;16985;50.814;8.530;2022-12-08T14:07:11;8.05;;;4.47;;
30173;SDS011;16985;50.814;8.530;2022-12-08T14:09:38;8.48;;;4.53;;
30173;SDS011;16985;50.814;8.530;2022-12-08T14:12:06;7.00;;;4.47;;
30173;SDS011;16985;50.814;8.530;2022-12-08T14:14:43;7.17;;;3.90;;
30173;SDS011;16985;50.814;8.530;2022-12-08T14:17:14;8.88;;;5.03;;
30173;SDS011;16985;50.814;8.530;2022-12-08T14:19:59;6.18;;;4.15;;
30173;SDS011;16985;50.814;8.530;2022-12-08T14:22:43;8.90;;;4.50;;
30173;SDS011;16985;50.814;8.530;2022-12-08T14:25:12;11.63;;;4.60;;
30173;SDS011;16985;50.814;8.530;2022-12-08T14:27:40;8.73;;;4.20;;
30173;SDS011;16985;50.814;8.530;2022-12-08T14:30:14;8.70;;;4.55;;
30173;SDS011;16985;50.814;8.530;2022-12-08T14:32:47;8.65;;;4.45;;
30173;SDS011;16985;50.814;8.530;2022-12-08T14:35:24;5.43;;;4.67;;
30173;SDS011;16985;50.814;8.530;2022-12-08T14:37:54;10.68;;;5.18;;
30173;SDS011;16985;50.814;8.530;2022-12-08T14:40:24;7.07;;;4.78;;
30173;SDS011;16985;50.814;8.530;2022-12-08T14:59:02;5.40;;;3.85;;
30173;SDS011;16985;50.814;8.530;2022-12-08T15:01:30;4.97;;;3.50;;
30173;SDS011;16985;50.814;8.530;2022-12-08T15:04:00;6.70;;;4.43;;
30173;SDS011;16985;50.814;8.530;2022-12-08T15:06:33;5.28;;;3.80;;
30173;SDS011;16985;50.814;8.530;2022-12-08T15:09:12;9.43;;;4.60;;
30173;SDS011;16985;50.814;8.530;2022-12-08T15:11:41;7.18;;;4.10;;
30173;SDS011;16985;50.814;8.530;2022-12-08T15:17:00;7.40;;;4.40;;
30173;SDS011;16985;50.814;8.530;2022-12-08T15:19:27;6.60;;;3.78;;
30173;SDS011;16985;50.814;8.530;2022-12-08T15:21:59;8.02;;;3.88;;
30173;SDS011;16985;50.814;8.530;2022-12-08T15:24:44;5.53;;;3.05;;
30173;SDS011;16985;50.814;8.530;2022-12-08T15:27:13;6.47;;;2.88;;
30173;SDS011;16985;50.814;8.530;2022-12-08T15:29:42;5.28;;;3.47;;
30173;SDS011;16985;50.814;8.530;2022-12-08T15:32:08;8.43;;;3.83;;
30173;SDS011;16985;50.814;8.530;2022-12-08T15:34:35;6.40;;;3.50;;
30173;SDS011;16985;50.814;8.530;2022-12-08T15:37:02;5.72;;;4.03;;
30173;SDS011;16985;50.814;8.530;2022-12-08T15:39:30;9.18;;;3.92;;
30173;SDS011;16985;50.814;8.530;2022-12-08T15:42:01;7.22;;;4.50;;
30173;SDS011;16985;50.814;8.530;2022-12-08T15:44:29;12.60;;;3.70;;
30173;SDS011;16985;50.814;8.530;2022-12-08T15:46:56;7.80;;;4.75;;
30173;SDS011;16985;50.814;8.530;2022-12-08T15:49:23;6.38;;;4.13;;
30173;SDS011;16985;50.814;8.530;2022-12-08T15:51:50;14.23;;;9.07;;
30173;SDS011;16985;50.814;8.530;2022-12-08T15:54:17;12.88;;;9.13;;
30173;SDS011;16985;50.814;8.530;2022-12-08T15:56:46;15.95;;;10.23;;
30173;SDS011;16985;50.814;8.530;2022-12-08T15:59:20;17.80;;;10.75;;
30173;SDS011;16985;50.814;8.530;2022-12-08T16:01:48;15.45;;;10.27;;
30173;SDS011;16985;50.814;8.530;2022-12-08T16:04:18;19.98;;;12.00;;
30173;SDS011;16985;50.814;8.530;2022-12-08T16:06:47;15.43;;;9.88;;
30173;SDS011;16985;50.814;8.530;2022-12-08T16:09:27;14.07;;;9.85;;
30173;SDS011;16985;50.814;8.530;2022-12-08T16:12:03;14.52;;;9.10;;
30173;SDS011;16985;50.814;8.530;2022-12-08T16:14:52;16.27;;;9.20;;
30173;SDS011;16985;50.814;8.530;2022-12-08T16:17:17;14.60;;;7.97;;
30173;SDS011;16985;50.814;8.530;2022-12-08T16:19:44;14.43;;;7.25;;
30173;SDS011;16985;50.814;8.530;2022-12-08T16:22:17;13.38;;;8.10;;
30173;SDS011;16985;50.814;8.530;2022-12-08T16:24:54;10.70;;;7.65;;
30173;SDS011;16985;50.814;8.530;2022-12-08T16:27:27;15.20;;;8.23;;
30173;SDS011;16985;50.814;8.530;2022-12-08T16:29:56;12.55;;;6.95;;
30173;SDS011;16985;50.814;8.530;2022-12-08T16:32:23;20.42;;;7.70;;
30173;SDS011;16985;50.814;8.530;2022-12-08T16:34:51;17.23;;;6.75;;
30173;SDS011;16985;50.814;8.530;2022-12-08T16:37:18;12.52;;;7.20;;
30173;SDS011;16985;50.814;8.530;2022-12-08T16:39:47;11.10;;;6.85;;
30173;SDS011;16985;50.814;8.530;2022-12-08T16:42:16;9.50;;;6.45;;